createdAt,value
2017-10-29T00:00:07.582Z,99.99
2017-10-29T00:00:33.700Z,99.99
2017-10-29T00:00:59.821Z,99.99
2017-10-29T00:01:25.990Z,99.99
2017-10-29T00:01:52.144Z,99.99
2017-10-29T00:02:18.289Z,99.99
2017-10-29T00:02:44.415Z,99.99
2017-10-29T00:03:10.539Z,99.99
2017-10-29T00:03:36.685Z,99.99
2017-10-29T00:04:02.800Z,99.99
2017-10-29T00:04:28.918Z,99.99
2017-10-29T00:04:55.048Z,99.99
2017-10-29T00:05:21.172Z,99.99
2017-10-29T00:05:47.317Z,99.99
2017-10-29T00:06:13.437Z,99.99
2017-10-29T00:06:39.579Z,99.99
2017-10-29T00:07:05.699Z,99.99
2017-10-29T00:07:31.819Z,99.99
2017-10-29T00:07:57.965Z,99.99
2017-10-29T00:08:24.093Z,99.99
2017-10-29T00:08:53.269Z,99.99
2017-10-29T00:09:19.388Z,99.99
2017-10-29T00:09:45.534Z,99.99
2017-10-29T00:10:11.681Z,99.99
2017-10-29T00:10:37.808Z,99.99
2017-10-29T00:11:03.928Z,99.99
2017-10-29T00:11:30.075Z,99.99
2017-10-29T00:11:56.186Z,99.99
2017-10-29T00:12:22.333Z,99.99
2017-10-29T00:12:48.460Z,99.99
2017-10-29T00:13:14.596Z,99.99
2017-10-29T00:13:40.753Z,99.99
2017-10-29T00:14:06.877Z,99.99
2017-10-29T00:14:33.005Z,99.99
2017-10-29T00:14:59.122Z,99.99
2017-10-29T00:15:25.257Z,99.99
2017-10-29T00:15:51.373Z,99.99
2017-10-29T00:16:17.516Z,99.99
2017-10-29T00:16:43.634Z,99.99
2017-10-29T00:17:09.761Z,99.99
2017-10-29T00:17:35.912Z,99.99
2017-10-29T00:18:02.037Z,99.99
2017-10-29T00:18:28.162Z,99.99
2017-10-29T00:18:54.282Z,99.99
2017-10-29T00:19:20.407Z,99.99
2017-10-29T00:19:46.528Z,99.99
2017-10-29T00:20:12.654Z,99.99
2017-10-29T00:20:38.778Z,99.99
2017-10-29T00:21:04.901Z,99.99
2017-10-29T00:21:31.026Z,99.99
2017-10-29T00:21:57.205Z,99.99
2017-10-29T00:22:23.315Z,99.99
2017-10-29T00:22:49.638Z,99.99
2017-10-29T00:23:15.765Z,99.99
2017-10-29T00:23:41.883Z,99.99
2017-10-29T00:24:08.005Z,99.99
2017-10-29T00:24:34.133Z,99.99
2017-10-29T00:25:00.258Z,99.99
2017-10-29T00:25:26.383Z,99.99
2017-10-29T00:25:52.506Z,99.99
2017-10-29T00:26:18.625Z,99.99
2017-10-29T00:26:44.753Z,99.99
2017-10-29T00:27:10.882Z,99.99
2017-10-29T00:27:36.999Z,99.99
2017-10-29T00:28:03.126Z,99.99
2017-10-29T00:28:29.250Z,99.99
2017-10-29T00:28:55.372Z,99.99
2017-10-29T00:29:21.496Z,99.99
2017-10-29T00:29:47.622Z,99.99
2017-10-29T00:30:13.745Z,99.99
2017-10-29T00:30:39.874Z,99.99
2017-10-29T00:31:06.045Z,99.99
2017-10-29T00:31:32.159Z,99.99
2017-10-29T00:31:58.288Z,99.99
2017-10-29T00:32:24.406Z,99.99
2017-10-29T00:32:50.529Z,99.99
2017-10-29T00:33:16.654Z,99.99
2017-10-29T00:33:42.772Z,99.99
2017-10-29T00:34:08.899Z,99.99
2017-10-29T00:34:35.024Z,99.99
2017-10-29T00:35:01.176Z,99.99
2017-10-29T00:35:27.304Z,99.99
2017-10-29T00:35:53.424Z,99.99
2017-10-29T00:36:19.554Z,99.99
2017-10-29T00:36:45.672Z,99.99
2017-10-29T00:37:11.794Z,99.99
2017-10-29T00:37:37.911Z,99.99
2017-10-29T00:38:04.034Z,99.99
2017-10-29T00:38:30.182Z,99.99
2017-10-29T00:38:56.310Z,99.99
2017-10-29T00:39:22.432Z,99.99
2017-10-29T00:39:48.556Z,99.99
2017-10-29T00:40:14.711Z,99.99
2017-10-29T00:40:40.831Z,99.99
2017-10-29T00:41:06.960Z,99.99
2017-10-29T00:41:33.078Z,99.99
2017-10-29T00:41:59.210Z,99.99
2017-10-29T00:42:25.329Z,99.99
2017-10-29T00:42:51.447Z,99.99
2017-10-29T00:43:17.601Z,99.99
2017-10-29T00:43:43.727Z,99.99
2017-10-29T00:44:09.873Z,99.99
2017-10-29T00:44:36.006Z,99.99
2017-10-29T00:45:02.145Z,99.99
2017-10-29T00:45:28.264Z,99.99
2017-10-29T00:45:54.385Z,99.99
2017-10-29T00:46:20.513Z,99.99
2017-10-29T00:46:46.664Z,99.99
2017-10-29T00:47:12.756Z,99.99
2017-10-29T00:47:38.886Z,99.99
2017-10-29T00:48:05.008Z,99.99
2017-10-29T00:48:31.172Z,99.99
2017-10-29T00:48:57.289Z,99.99
2017-10-29T00:49:23.418Z,99.99
2017-10-29T00:49:49.536Z,99.99
2017-10-29T00:50:15.669Z,99.99
2017-10-29T00:50:41.813Z,99.99
2017-10-29T00:51:07.933Z,99.99
2017-10-29T00:51:34.050Z,99.99
2017-10-29T00:52:00.174Z,99.99
2017-10-29T00:52:26.315Z,99.99
2017-10-29T00:52:52.499Z,99.99
2017-10-29T00:53:18.617Z,99.99
2017-10-29T00:53:44.737Z,99.99
2017-10-29T00:54:10.863Z,99.99
2017-10-29T00:54:36.986Z,99.99
2017-10-29T00:55:03.112Z,99.99
2017-10-29T00:55:29.240Z,99.99
2017-10-29T00:55:55.358Z,99.99
2017-10-29T00:56:21.485Z,99.99
2017-10-29T00:56:47.632Z,99.99
2017-10-29T00:57:13.781Z,99.99
2017-10-29T00:57:39.904Z,99.99
2017-10-29T00:58:06.031Z,99.99
2017-10-29T00:58:32.158Z,99.99
2017-10-29T00:58:58.274Z,99.99
2017-10-29T00:59:24.399Z,99.99
2017-10-29T00:59:50.524Z,99.99
2017-10-29T01:00:16.643Z,99.99
2017-10-29T01:00:42.784Z,99.99
2017-10-29T01:01:08.906Z,99.99
2017-10-29T01:01:35.024Z,99.99
2017-10-29T01:02:01.152Z,99.99
2017-10-29T01:02:27.277Z,99.99
2017-10-29T01:02:53.396Z,99.99
2017-10-29T01:03:19.520Z,99.99
2017-10-29T01:03:45.642Z,99.99
2017-10-29T01:04:11.767Z,99.99
2017-10-29T01:04:37.893Z,99.99
2017-10-29T01:05:04.012Z,99.99
2017-10-29T01:05:30.185Z,99.99
2017-10-29T01:05:56.324Z,99.99
2017-10-29T01:06:22.453Z,99.99
2017-10-29T01:06:48.573Z,99.99
2017-10-29T01:07:14.699Z,99.99
2017-10-29T01:07:40.827Z,99.99
2017-10-29T01:08:06.945Z,99.99
2017-10-29T01:08:33.074Z,99.99
2017-10-29T01:08:59.190Z,99.99
2017-10-29T01:09:25.314Z,99.99
2017-10-29T01:09:51.448Z,99.99
2017-10-29T01:10:17.568Z,99.99
2017-10-29T01:10:43.692Z,99.99
2017-10-29T01:11:09.817Z,99.99
2017-10-29T01:11:35.936Z,99.99
2017-10-29T01:12:02.065Z,99.99
2017-10-29T01:12:28.192Z,99.99
2017-10-29T01:12:54.311Z,99.99
2017-10-29T01:13:20.463Z,99.99
2017-10-29T01:13:46.584Z,99.99
2017-10-29T01:14:13.253Z,99.99
2017-10-29T01:14:39.314Z,99.99
2017-10-29T01:15:05.490Z,99.99
2017-10-29T01:15:31.604Z,99.99
2017-10-29T01:15:57.754Z,99.99
2017-10-29T01:16:23.840Z,99.99
2017-10-29T01:16:49.963Z,99.99
2017-10-29T01:17:16.114Z,99.99
2017-10-29T01:17:42.238Z,99.99
2017-10-29T01:18:08.389Z,99.99
2017-10-29T01:18:34.502Z,99.99
2017-10-29T01:19:00.644Z,99.99
2017-10-29T01:19:26.765Z,99.99
2017-10-29T01:19:52.896Z,99.99
2017-10-29T01:20:19.010Z,99.99
2017-10-29T01:20:45.133Z,99.99
2017-10-29T01:21:11.263Z,99.99
2017-10-29T01:21:37.383Z,99.99
2017-10-29T01:22:06.539Z,99.99
2017-10-29T01:22:32.657Z,99.99
2017-10-29T01:22:58.790Z,99.99
2017-10-29T01:23:24.903Z,99.99
2017-10-29T01:23:51.031Z,99.99
2017-10-29T01:24:17.174Z,99.99
2017-10-29T01:24:43.271Z,99.99
2017-10-29T01:25:09.395Z,99.99
2017-10-29T01:25:35.522Z,99.99
2017-10-29T01:26:01.646Z,99.99
2017-10-29T01:26:27.772Z,99.99
2017-10-29T01:26:53.919Z,99.99
2017-10-29T01:27:20.038Z,99.99
2017-10-29T01:27:46.165Z,99.99
2017-10-29T01:28:12.288Z,99.99
2017-10-29T01:28:38.416Z,99.99
2017-10-29T01:29:04.537Z,99.99
2017-10-29T01:29:30.654Z,99.99
2017-10-29T01:29:56.789Z,99.99
2017-10-29T01:30:22.907Z,99.99
2017-10-29T01:30:49.034Z,99.99
2017-10-29T01:31:15.151Z,99.99
2017-10-29T01:31:41.280Z,99.99
2017-10-29T01:32:07.424Z,99.99
2017-10-29T01:32:33.549Z,99.99
2017-10-29T01:32:59.668Z,99.99
2017-10-29T01:33:25.792Z,99.99
2017-10-29T01:33:51.949Z,99.99
2017-10-29T01:34:18.063Z,99.99
2017-10-29T01:34:44.199Z,99.99
2017-10-29T01:35:10.350Z,99.99
2017-10-29T01:35:36.474Z,99.99
2017-10-29T01:36:02.592Z,99.99
2017-10-29T01:36:28.722Z,99.99
2017-10-29T01:36:54.853Z,99.99
2017-10-29T01:37:20.987Z,99.99
2017-10-29T01:37:47.120Z,99.99
2017-10-29T01:38:13.255Z,99.99
2017-10-29T01:38:39.384Z,99.99
2017-10-29T01:39:05.504Z,99.99
2017-10-29T01:39:31.650Z,99.99
2017-10-29T01:39:57.761Z,99.99
2017-10-29T01:40:23.888Z,99.99
2017-10-29T01:40:50.016Z,99.99
2017-10-29T01:41:16.131Z,99.99
2017-10-29T01:41:42.259Z,99.99
2017-10-29T01:42:08.376Z,99.99
2017-10-29T01:42:34.529Z,99.99
2017-10-29T01:43:00.652Z,99.99
2017-10-29T01:43:26.782Z,99.99
2017-10-29T01:43:52.902Z,99.99
2017-10-29T01:44:19.031Z,99.99
2017-10-29T01:44:45.152Z,99.99
2017-10-29T01:45:11.279Z,99.99
2017-10-29T01:45:37.404Z,99.99
2017-10-29T01:46:03.523Z,99.99
2017-10-29T01:46:29.658Z,99.99
2017-10-29T01:46:55.788Z,99.99
2017-10-29T01:47:21.906Z,99.99
2017-10-29T01:47:48.027Z,99.99
2017-10-29T01:48:14.153Z,99.99
2017-10-29T01:48:40.272Z,99.99
2017-10-29T01:49:06.399Z,99.99
2017-10-29T01:49:32.517Z,99.99
2017-10-29T01:49:58.642Z,99.99
2017-10-29T01:50:24.793Z,99.99
2017-10-29T01:50:50.909Z,99.99
2017-10-29T01:51:17.038Z,99.99
2017-10-29T01:51:43.156Z,99.99
2017-10-29T01:52:09.289Z,99.99
2017-10-29T01:52:35.403Z,99.99
2017-10-29T01:53:01.523Z,99.99
2017-10-29T01:53:27.650Z,99.99
2017-10-29T01:53:53.778Z,99.99
2017-10-29T01:54:19.895Z,99.99
2017-10-29T01:54:46.016Z,99.99
2017-10-29T01:55:12.145Z,99.99
2017-10-29T01:55:38.262Z,99.99
2017-10-29T01:56:04.392Z,99.99
2017-10-29T01:56:30.516Z,99.99
2017-10-29T01:56:56.635Z,99.99
2017-10-29T01:57:22.758Z,99.99
2017-10-29T01:57:48.914Z,99.99
2017-10-29T01:58:15.012Z,99.99
2017-10-29T01:58:41.129Z,99.99
2017-10-29T01:59:07.249Z,99.99
2017-10-29T01:59:33.371Z,99.99
2017-10-29T01:59:59.488Z,99.99
2017-10-29T02:00:25.616Z,99.99
2017-10-29T02:00:51.741Z,99.99
2017-10-29T02:01:17.858Z,99.99
2017-10-29T02:01:44.006Z,99.99
2017-10-29T02:02:10.121Z,99.99
2017-10-29T02:02:36.251Z,99.99
2017-10-29T02:03:02.378Z,99.99
2017-10-29T02:03:28.502Z,99.99
2017-10-29T02:03:54.628Z,99.99
2017-10-29T02:04:20.746Z,99.99
2017-10-29T02:04:46.866Z,99.99
2017-10-29T02:05:12.987Z,99.99
2017-10-29T02:05:39.116Z,99.99
2017-10-29T02:06:05.242Z,99.99
2017-10-29T02:06:31.389Z,99.99
2017-10-29T02:06:57.513Z,99.99
2017-10-29T02:07:23.640Z,99.99
2017-10-29T02:07:49.785Z,99.99
2017-10-29T02:08:15.905Z,99.99
2017-10-29T02:08:42.059Z,99.99
2017-10-29T02:09:08.156Z,99.99
2017-10-29T02:09:34.277Z,99.99
2017-10-29T02:10:00.401Z,99.99
2017-10-29T02:10:26.528Z,99.99
2017-10-29T02:10:52.647Z,99.99
2017-10-29T02:11:18.778Z,99.99
2017-10-29T02:11:44.896Z,99.99
2017-10-29T02:12:11.016Z,99.99
2017-10-29T02:12:37.145Z,99.99
2017-10-29T02:13:03.270Z,99.99
2017-10-29T02:13:29.387Z,99.99
2017-10-29T02:13:55.509Z,99.99
2017-10-29T02:14:21.634Z,99.99
2017-10-29T02:14:47.753Z,99.99
2017-10-29T02:15:13.883Z,99.99
2017-10-29T02:15:40.029Z,99.99
2017-10-29T02:16:06.145Z,99.99
2017-10-29T02:16:32.275Z,99.99
2017-10-29T02:16:58.392Z,99.99
2017-10-29T02:17:24.513Z,99.99
2017-10-29T02:17:50.639Z,99.99
2017-10-29T02:18:16.765Z,99.99
2017-10-29T02:18:42.883Z,99.99
2017-10-29T02:19:09.006Z,99.99
2017-10-29T02:19:35.126Z,99.99
2017-10-29T02:20:01.244Z,99.99
2017-10-29T02:20:27.397Z,99.99
2017-10-29T02:20:53.533Z,99.99
2017-10-29T02:21:19.657Z,99.99
2017-10-29T02:21:45.786Z,99.99
2017-10-29T02:22:11.907Z,99.99
2017-10-29T02:22:38.032Z,99.99
2017-10-29T02:23:04.151Z,99.99
2017-10-29T02:23:30.280Z,99.99
2017-10-29T02:23:56.403Z,99.99
2017-10-29T02:24:22.524Z,99.99
2017-10-29T02:24:48.642Z,99.99
2017-10-29T02:25:14.770Z,99.99
2017-10-29T02:25:40.893Z,99.99
2017-10-29T02:26:07.020Z,99.99
2017-10-29T02:26:33.154Z,99.99
2017-10-29T02:26:59.285Z,99.99
2017-10-29T02:27:25.421Z,99.99
2017-10-29T02:27:51.541Z,99.99
2017-10-29T02:28:17.671Z,99.99
2017-10-29T02:28:43.792Z,99.99
2017-10-29T02:29:09.918Z,99.99
2017-10-29T02:29:36.057Z,99.99
2017-10-29T02:30:02.184Z,99.99
2017-10-29T02:30:28.331Z,99.99
2017-10-29T02:30:54.453Z,99.99
2017-10-29T02:31:20.577Z,99.99
2017-10-29T02:31:46.698Z,99.99
2017-10-29T02:32:12.818Z,99.99
2017-10-29T02:32:38.947Z,99.99
2017-10-29T02:33:05.088Z,99.99
2017-10-29T02:33:31.213Z,99.99
2017-10-29T02:33:57.341Z,99.99
2017-10-29T02:34:23.458Z,99.99
2017-10-29T02:34:49.579Z,99.99
2017-10-29T02:35:15.721Z,99.99
2017-10-29T02:35:41.849Z,99.99
2017-10-29T02:36:07.986Z,99.99
2017-10-29T02:36:34.127Z,99.99
2017-10-29T02:37:00.258Z,99.99
2017-10-29T02:37:26.382Z,99.99
2017-10-29T02:37:52.501Z,99.99
2017-10-29T02:38:18.623Z,99.99
2017-10-29T02:38:44.750Z,99.99
2017-10-29T02:39:10.871Z,99.99
2017-10-29T02:39:37.003Z,99.99
2017-10-29T02:40:03.116Z,99.99
2017-10-29T02:40:29.246Z,99.99
2017-10-29T02:40:55.389Z,99.99
2017-10-29T02:41:21.514Z,99.99
2017-10-29T02:41:47.629Z,99.99
2017-10-29T02:42:13.755Z,99.99
2017-10-29T02:42:39.883Z,99.99
2017-10-29T02:43:06.006Z,99.99
2017-10-29T02:43:32.128Z,99.99
2017-10-29T02:43:58.255Z,99.99
2017-10-29T02:44:24.368Z,99.99
2017-10-29T02:44:50.492Z,99.99
2017-10-29T02:45:16.612Z,99.99
2017-10-29T02:45:42.732Z,99.99
2017-10-29T02:46:08.862Z,99.99
2017-10-29T02:46:34.997Z,99.99
2017-10-29T02:47:01.118Z,99.99
2017-10-29T02:47:27.245Z,99.99
2017-10-29T02:47:53.363Z,99.99
2017-10-29T02:48:19.489Z,99.99
2017-10-29T02:48:45.624Z,99.99
2017-10-29T02:49:11.771Z,99.99
2017-10-29T02:49:37.902Z,99.99
2017-10-29T02:50:04.021Z,99.99
2017-10-29T02:50:30.147Z,99.99
2017-10-29T02:50:56.267Z,99.99
2017-10-29T02:51:22.391Z,99.99
2017-10-29T02:51:48.511Z,99.99
2017-10-29T02:52:14.633Z,99.9
2017-10-29T02:52:40.760Z,99.71
2017-10-29T02:53:06.879Z,99.99
2017-10-29T02:53:33.008Z,99.99
2017-10-29T02:53:59.125Z,99.62
2017-10-29T02:54:25.253Z,99.52
2017-10-29T02:54:51.380Z,99.52
2017-10-29T02:55:17.493Z,99.71
2017-10-29T02:55:43.649Z,98.66
2017-10-29T02:56:09.740Z,99.04
2017-10-29T02:56:35.864Z,98.75
2017-10-29T02:57:01.982Z,98.85
2017-10-29T02:57:28.103Z,98.85
2017-10-29T02:57:54.228Z,98.75
2017-10-29T02:58:20.353Z,99.14
2017-10-29T02:58:46.471Z,99.04
2017-10-29T02:59:12.599Z,98.47
2017-10-29T02:59:38.719Z,98.94
2017-10-29T03:00:04.842Z,99.04
2017-10-29T03:00:30.960Z,98.28
2017-10-29T03:00:57.089Z,99.23
2017-10-29T03:01:23.208Z,98.28
2017-10-29T03:01:49.330Z,99.23
2017-10-29T03:02:15.457Z,98.75
2017-10-29T03:02:41.575Z,98.85
2017-10-29T03:03:07.700Z,99.04
2017-10-29T03:03:33.828Z,98.85
2017-10-29T03:03:59.949Z,99.14
2017-10-29T03:04:26.069Z,98.57
2017-10-29T03:04:52.196Z,98.47
2017-10-29T03:05:18.314Z,98.85
2017-10-29T03:05:44.446Z,98.94
2017-10-29T03:06:10.597Z,98.85
2017-10-29T03:06:36.689Z,98.66
2017-10-29T03:07:02.836Z,99.04
2017-10-29T03:07:28.956Z,99.14
2017-10-29T03:07:55.083Z,99.52
2017-10-29T03:08:21.204Z,99.71
2017-10-29T03:08:47.330Z,99.71
2017-10-29T03:09:13.451Z,99.71
2017-10-29T03:09:39.577Z,99.04
2017-10-29T03:10:05.696Z,98.85
2017-10-29T03:10:31.819Z,98.75
2017-10-29T03:10:57.939Z,98.94
2017-10-29T03:11:24.066Z,98.66
2017-10-29T03:11:50.184Z,99.9
2017-10-29T03:12:16.306Z,99.23
2017-10-29T03:12:42.477Z,99.52
2017-10-29T03:13:08.599Z,99.71
2017-10-29T03:13:34.721Z,99.43
2017-10-29T03:14:00.846Z,99.76
2017-10-29T03:14:26.981Z,99.99
2017-10-29T03:14:53.095Z,99.99
2017-10-29T03:15:19.225Z,99.9
2017-10-29T03:15:45.348Z,99.33
2017-10-29T03:16:11.462Z,99.71
2017-10-29T03:16:37.589Z,99.99
2017-10-29T03:17:03.730Z,99.99
2017-10-29T03:17:29.877Z,99.8
2017-10-29T03:17:55.997Z,99.99
2017-10-29T03:18:22.121Z,98.28
2017-10-29T03:18:48.243Z,97.71
2017-10-29T03:19:14.360Z,97.32
2017-10-29T03:19:40.494Z,96.94
2017-10-29T03:20:06.611Z,96.66
2017-10-29T03:20:32.736Z,96.27
2017-10-29T03:20:58.864Z,95.61
2017-10-29T03:21:24.990Z,96.66
2017-10-29T03:21:51.109Z,95.7
2017-10-29T03:22:17.235Z,95.61
2017-10-29T03:22:43.355Z,95.61
2017-10-29T03:23:09.478Z,96.27
2017-10-29T03:23:35.602Z,96.17
2017-10-29T03:24:01.723Z,96.17
2017-10-29T03:24:27.847Z,95.94
2017-10-29T03:24:53.967Z,96.32
2017-10-29T03:25:20.093Z,97.75
2017-10-29T03:25:46.212Z,97.47
2017-10-29T03:26:12.333Z,97.08
2017-10-29T03:26:38.459Z,97.56
2017-10-29T03:27:04.580Z,97.37
2017-10-29T03:27:30.702Z,97.27
2017-10-29T03:27:56.833Z,97.27
2017-10-29T03:28:22.970Z,97.66
2017-10-29T03:28:49.099Z,98.23
2017-10-29T03:29:15.215Z,97.85
2017-10-29T03:29:41.335Z,98.13
2017-10-29T03:30:07.459Z,98.13
2017-10-29T03:30:33.587Z,98.42
2017-10-29T03:30:59.713Z,97.94
2017-10-29T03:31:25.825Z,97.75
2017-10-29T03:31:51.954Z,97.85
2017-10-29T03:32:18.073Z,98.13
2017-10-29T03:32:44.201Z,98.13
2017-10-29T03:33:10.323Z,97.94
2017-10-29T03:33:36.441Z,97.51
2017-10-29T03:34:02.568Z,97.42
2017-10-29T03:34:28.686Z,97.37
2017-10-29T03:34:54.807Z,97.56
2017-10-29T03:35:20.935Z,96.8
2017-10-29T03:35:47.053Z,97.08
2017-10-29T03:36:13.181Z,96.37
2017-10-29T03:36:39.319Z,96.37
2017-10-29T03:37:05.459Z,96.27
2017-10-29T03:37:31.583Z,96.94
2017-10-29T03:37:57.705Z,96.89
2017-10-29T03:38:23.822Z,96.42
2017-10-29T03:38:49.949Z,96.03
2017-10-29T03:39:16.066Z,95.84
2017-10-29T03:39:42.195Z,96.13
2017-10-29T03:40:08.321Z,95.75
2017-10-29T03:40:34.436Z,95.75
2017-10-29T03:41:00.567Z,95.65
2017-10-29T03:41:26.688Z,95.75
2017-10-29T03:41:52.813Z,95.56
2017-10-29T03:42:18.940Z,96.03
2017-10-29T03:42:45.089Z,95.65
2017-10-29T03:43:11.206Z,96.42
2017-10-29T03:43:37.329Z,95.75
2017-10-29T03:44:03.465Z,95.17
2017-10-29T03:44:29.583Z,95.36
2017-10-29T03:44:55.732Z,94.98
2017-10-29T03:45:21.856Z,94.98
2017-10-29T03:45:47.976Z,94.98
2017-10-29T03:46:14.107Z,95.08
2017-10-29T03:46:40.224Z,95.27
2017-10-29T03:47:06.344Z,94.89
2017-10-29T03:47:32.464Z,94.41
2017-10-29T03:47:58.590Z,94.12
2017-10-29T03:48:24.710Z,94.98
2017-10-29T03:48:50.832Z,94.79
2017-10-29T03:49:16.962Z,94.79
2017-10-29T03:49:43.081Z,94.79
2017-10-29T03:50:09.207Z,94.89
2017-10-29T03:50:35.326Z,94.98
2017-10-29T03:51:01.471Z,94.17
2017-10-29T03:51:27.594Z,94.46
2017-10-29T03:51:53.742Z,94.46
2017-10-29T03:52:19.838Z,94.22
2017-10-29T03:52:45.955Z,93.88
2017-10-29T03:53:12.082Z,94.41
2017-10-29T03:53:38.202Z,93.7
2017-10-29T03:54:04.327Z,93.93
2017-10-29T03:54:30.445Z,94.03
2017-10-29T03:54:56.572Z,94.03
2017-10-29T03:55:22.694Z,93.65
2017-10-29T03:55:48.810Z,92.74
2017-10-29T03:56:14.938Z,93.41
2017-10-29T03:56:41.061Z,93.22
2017-10-29T03:57:07.182Z,93.22
2017-10-29T03:57:33.315Z,93.22
2017-10-29T03:57:59.438Z,93.22
2017-10-29T03:58:25.560Z,93.12
2017-10-29T03:58:51.690Z,93.22
2017-10-29T03:59:17.811Z,93.65
2017-10-29T03:59:43.941Z,93.65
2017-10-29T04:00:10.058Z,93.36
2017-10-29T04:00:36.199Z,92.88
2017-10-29T04:01:02.324Z,92.83
2017-10-29T04:01:28.447Z,92.97
2017-10-29T04:01:54.566Z,92.97
2017-10-29T04:02:20.686Z,92.83
2017-10-29T04:02:46.811Z,92.74
2017-10-29T04:03:12.925Z,92.97
2017-10-29T04:03:39.063Z,92.83
2017-10-29T04:04:05.180Z,92.97
2017-10-29T04:04:31.300Z,92.88
2017-10-29T04:04:57.427Z,93.07
2017-10-29T04:05:23.546Z,92.74
2017-10-29T04:05:49.673Z,92.5
2017-10-29T04:06:15.804Z,91.69
2017-10-29T04:06:41.920Z,91.78
2017-10-29T04:07:08.048Z,91.78
2017-10-29T04:07:34.162Z,92.17
2017-10-29T04:08:00.282Z,91.78
2017-10-29T04:08:26.410Z,92.17
2017-10-29T04:08:52.534Z,92.5
2017-10-29T04:09:18.655Z,92.36
2017-10-29T04:09:44.772Z,91.93
2017-10-29T04:10:10.900Z,91.78
2017-10-29T04:10:37.024Z,92.12
2017-10-29T04:11:03.163Z,91.12
2017-10-29T04:11:29.285Z,91.21
2017-10-29T04:11:55.409Z,91.02
2017-10-29T04:12:21.526Z,91.12
2017-10-29T04:12:47.655Z,91.21
2017-10-29T04:13:13.781Z,91.41
2017-10-29T04:13:39.901Z,91.21
2017-10-29T04:14:06.044Z,90.93
2017-10-29T04:14:32.169Z,90.55
2017-10-29T04:14:58.282Z,90.83
2017-10-29T04:15:24.410Z,91.21
2017-10-29T04:15:50.534Z,91.12
2017-10-29T04:16:16.655Z,90.36
2017-10-29T04:16:42.782Z,90.36
2017-10-29T04:17:08.904Z,90.73
2017-10-29T04:17:35.036Z,90.45
2017-10-29T04:18:01.148Z,90.36
2017-10-29T04:18:27.271Z,90.45
2017-10-29T04:18:53.389Z,90.17
2017-10-29T04:19:19.537Z,90.26
2017-10-29T04:19:45.659Z,90.26
2017-10-29T04:20:11.777Z,89.88
2017-10-29T04:20:37.907Z,89.69
2017-10-29T04:21:04.028Z,89.59
2017-10-29T04:21:30.146Z,89.59
2017-10-29T04:21:56.266Z,88.92
2017-10-29T04:22:22.394Z,89.02
2017-10-29T04:22:48.517Z,88.83
2017-10-29T04:23:14.637Z,89.02
2017-10-29T04:23:40.777Z,89.31
2017-10-29T04:24:06.909Z,89.02
2017-10-29T04:24:33.025Z,89.02
2017-10-29T04:24:59.151Z,89.5
2017-10-29T04:25:25.279Z,89.31
2017-10-29T04:25:51.399Z,89.02
2017-10-29T04:26:17.547Z,88.73
2017-10-29T04:26:43.662Z,88.35
2017-10-29T04:27:09.786Z,88.45
2017-10-29T04:27:35.913Z,87.49
2017-10-29T04:28:02.040Z,87.4
2017-10-29T04:28:28.159Z,87.49
2017-10-29T04:28:54.283Z,87.87
2017-10-29T04:29:20.415Z,87.87
2017-10-29T04:29:46.537Z,87.68
2017-10-29T04:30:12.662Z,87.87
2017-10-29T04:30:38.785Z,87.21
2017-10-29T04:31:04.899Z,87.21
2017-10-29T04:31:31.022Z,87.02
2017-10-29T04:31:57.139Z,87.02
2017-10-29T04:32:23.259Z,87.49
2017-10-29T04:32:49.386Z,87.68
2017-10-29T04:33:15.504Z,87.3
2017-10-29T04:33:41.626Z,87.59
2017-10-29T04:34:07.752Z,87.49
2017-10-29T04:34:33.891Z,86.73
2017-10-29T04:35:00.013Z,86.73
2017-10-29T04:35:26.155Z,87.21
2017-10-29T04:35:52.279Z,86.54
2017-10-29T04:36:18.398Z,87.59
2017-10-29T04:36:44.527Z,87.4
2017-10-29T04:37:10.645Z,87.44
2017-10-29T04:37:36.764Z,87.49
2017-10-29T04:38:02.893Z,87.73
2017-10-29T04:38:29.017Z,87.54
2017-10-29T04:38:55.136Z,87.4
2017-10-29T04:39:21.262Z,87.49
2017-10-29T04:39:47.384Z,87.49
2017-10-29T04:40:13.510Z,87.4
2017-10-29T04:40:39.633Z,87.73
2017-10-29T04:41:05.753Z,87.44
2017-10-29T04:41:31.875Z,87.49
2017-10-29T04:41:58.002Z,87.4
2017-10-29T04:42:24.118Z,87.44
2017-10-29T04:42:50.240Z,87.59
2017-10-29T04:43:16.366Z,87.21
2017-10-29T04:43:42.494Z,86.87
2017-10-29T04:44:08.604Z,86.73
2017-10-29T04:44:34.725Z,85.63
2017-10-29T04:45:00.858Z,85.01
2017-10-29T04:45:26.978Z,85.05
2017-10-29T04:45:53.109Z,84.63
2017-10-29T04:46:19.220Z,85.72
2017-10-29T04:46:45.352Z,85.63
2017-10-29T04:47:11.476Z,85.58
2017-10-29T04:47:37.598Z,85.82
2017-10-29T04:48:03.720Z,85.21
2017-10-29T04:48:29.841Z,84.44
2017-10-29T04:48:55.960Z,84
2017-10-29T04:49:22.080Z,84
2017-10-29T04:49:48.207Z,83.62
2017-10-29T04:50:14.328Z,83.72
2017-10-29T04:50:40.453Z,82.76
2017-10-29T04:51:06.582Z,81.52
2017-10-29T04:51:32.706Z,81.2
2017-10-29T04:51:58.820Z,80.53
2017-10-29T04:52:24.943Z,80.76
2017-10-29T04:52:51.071Z,80.43
2017-10-29T04:53:17.188Z,79.96
2017-10-29T04:53:43.312Z,80.09
2017-10-29T04:54:09.431Z,79.14
2017-10-29T04:54:35.556Z,78.85
2017-10-29T04:55:01.674Z,77.57
2017-10-29T04:55:27.801Z,77.28
2017-10-29T04:55:53.925Z,76.27
2017-10-29T04:56:20.047Z,76.23
2017-10-29T04:56:46.166Z,76.65
2017-10-29T04:57:12.292Z,76.33
2017-10-29T04:57:38.411Z,76.71
2017-10-29T04:58:04.535Z,75.76
2017-10-29T04:58:30.662Z,76.04
2017-10-29T04:58:56.781Z,75.89
2017-10-29T04:59:22.908Z,75.98
2017-10-29T04:59:49.024Z,75.95
2017-10-29T05:00:15.153Z,75.85
2017-10-29T05:00:41.271Z,75.95
2017-10-29T05:01:07.392Z,75.6
2017-10-29T05:01:33.516Z,75.76
2017-10-29T05:01:59.637Z,75.42
2017-10-29T05:02:25.764Z,75.51
2017-10-29T05:02:51.882Z,75.66
2017-10-29T05:03:18.012Z,76.14
2017-10-29T05:03:44.148Z,75.42
2017-10-29T05:04:10.273Z,75.22
2017-10-29T05:04:36.401Z,74.8
2017-10-29T05:05:02.518Z,74.93
2017-10-29T05:05:28.644Z,75.47
2017-10-29T05:05:54.764Z,75.66
2017-10-29T05:06:20.885Z,75.98
2017-10-29T05:06:47.010Z,76.04
2017-10-29T05:07:13.131Z,76.27
2017-10-29T05:07:39.254Z,76.14
2017-10-29T05:08:05.373Z,75.89
2017-10-29T05:08:31.501Z,76.18
2017-10-29T05:08:57.621Z,76.46
2017-10-29T05:09:23.740Z,76.65
2017-10-29T05:09:49.888Z,76.27
2017-10-29T05:10:16.039Z,77.32
2017-10-29T05:10:42.162Z,76.84
2017-10-29T05:11:08.282Z,76.56
2017-10-29T05:11:34.403Z,76.18
2017-10-29T05:12:00.533Z,76.37
2017-10-29T05:12:26.672Z,75.98
2017-10-29T05:12:52.824Z,76.18
2017-10-29T05:13:18.953Z,76.18
2017-10-29T05:13:45.071Z,76.18
2017-10-29T05:14:11.198Z,76.37
2017-10-29T05:14:37.311Z,76.56
2017-10-29T05:15:03.427Z,76.65
2017-10-29T05:15:29.551Z,77.32
2017-10-29T05:15:55.684Z,77.32
2017-10-29T05:16:21.802Z,77.32
2017-10-29T05:16:47.920Z,77.8
2017-10-29T05:17:14.048Z,77.32
2017-10-29T05:17:40.168Z,77.42
2017-10-29T05:18:06.291Z,77.23
2017-10-29T05:18:32.427Z,76.56
2017-10-29T05:18:58.557Z,76.65
2017-10-29T05:19:24.683Z,76.33
2017-10-29T05:19:50.800Z,75.95
2017-10-29T05:20:16.942Z,76.14
2017-10-29T05:20:43.069Z,75.98
2017-10-29T05:21:09.187Z,76.08
2017-10-29T05:21:35.314Z,75.95
2017-10-29T05:22:01.441Z,76.14
2017-10-29T05:22:27.566Z,75.95
2017-10-29T05:22:53.682Z,75.57
2017-10-29T05:23:19.809Z,75.98
2017-10-29T05:23:45.933Z,75.6
2017-10-29T05:24:12.051Z,75.98
2017-10-29T05:24:38.178Z,75.98
2017-10-29T05:25:04.299Z,75.85
2017-10-29T05:25:30.425Z,75.85
2017-10-29T05:25:56.544Z,75.95
2017-10-29T05:26:22.684Z,75.95
2017-10-29T05:26:48.813Z,75.37
2017-10-29T05:27:14.945Z,75.32
2017-10-29T05:27:41.056Z,75.6
2017-10-29T05:28:07.176Z,75.7
2017-10-29T05:28:33.300Z,75.51
2017-10-29T05:28:59.420Z,75.37
2017-10-29T05:29:25.540Z,75.09
2017-10-29T05:29:51.686Z,74.74
2017-10-29T05:30:17.808Z,74.74
2017-10-29T05:30:43.936Z,74.52
2017-10-29T05:31:10.055Z,74.23
2017-10-29T05:31:36.230Z,74.04
2017-10-29T05:32:02.357Z,73.56
2017-10-29T05:32:28.477Z,74.04
2017-10-29T05:32:54.605Z,74.13
2017-10-29T05:33:20.726Z,74.13
2017-10-29T05:33:46.844Z,74.13
2017-10-29T05:34:12.963Z,73.94
2017-10-29T05:34:39.108Z,73.75
2017-10-29T05:35:05.235Z,74.32
2017-10-29T05:35:31.355Z,74.32
2017-10-29T05:35:57.477Z,73.94
2017-10-29T05:36:23.606Z,73.18
2017-10-29T05:36:49.719Z,73.66